KNJK/NJK METAR and TAF weather

Enter ICAO airport designator
Station Type Date Time Source
KNJK METAR 2022/12/02 22:56 UTC NOAA

KNJK 022256Z 00000KT 10SM FEW080 FEW180 BKN250 24/06 A3008 RMK AO2 SLP202 T02390061 $


Station Type Date Time Source
KNJK Decoded METAR 2022/12/02 22:56 UTC NOAA

El Centro, Naval Air Facility, CA, United States (KNJK) 32-49-30N 115-39-38W -13M
Dec 02, 2022 - 05:56 PM EST / 2022.12.02 2256 UTC
Wind: Calm:0
Visibility: 10 mile(s):0
Sky conditions: mostly cloudy
Temperature: 75.0 F (23.9 C)
Dew Point: 43.0 F (6.1 C)
Relative Humidity: 31%
Pressure (altimeter): 30.08 in. Hg (1018 hPa)
ob: KNJK 022256Z 00000KT 10SM FEW080 FEW180 BKN250 24/06 A3008 RMK AO2 SLP202 T02390061
cycle: 23

Station Type Date Time Source
KNJK TAF 2022/12/02 15:03 UTC NOAA

TAF KNJK 0215/0315 22005KT 9999 FEW080 SCT180 BKN250 QNH3006INS
FM021800 33006KT 9999 BKN100 BKN250 QNH3004INS
FM030200 VRB06KT 9999 FEW080 SCT200 QNH3007INS T21/0222Z T09/0313Z FS30195

Example: see airport list